Time;durP1;ratioP1;P1;durP2;ratioP2;P2;SDS_P1;SDS_P2;PMS_P1;PMS_P2;Temp;Humidity;BMP_temperature;BMP_pressure;BME280_temperature;BME280_humidity;BME280_pressure;Samples;Min_cycle;Max_cycle;Signal;HPM_P1;HPM_P2
2022/01/17 00:01:52;;;;;;;34.67;3.75;;;;;;;;;;5011502;28;20037;-63
2022/01/17 00:04:19;;;;;;;20.17;3.25;;;;;;;;;;5012405;28;20121;-64
2022/01/17 00:06:46;;;;;;;25.98;4.15;;;;;;;;;;5011364;28;20109;-64
2022/01/17 00:09:12;;;;;;;19.25;3.67;;;;;;;;;;5009558;28;20359;-63
2022/01/17 00:11:43;;;;;;;34.97;3.60;;;;;;;;;;5009736;28;20037;-64
2022/01/17 00:14:13;;;;;;;18.13;3.05;;;;;;;;;;5004346;28;20386;-63
2022/01/17 00:16:44;;;;;;;23.15;3.08;;;;;;;;;;5001400;28;20042;-63
2022/01/17 00:21:49;;;;;;;23.58;3.65;;;;;;;;;;5011148;28;20107;-63
2022/01/17 00:24:18;;;;;;;23.35;3.83;;;;;;;;;;5011887;28;20041;-63
2022/01/17 00:26:46;;;;;;;20.95;2.88;;;;;;;;;;5011532;28;20502;-63
2022/01/17 00:29:12;;;;;;;20.75;2.97;;;;;;;;;;5010928;28;20464;-63
2022/01/17 00:31:38;;;;;;;19.40;3.13;;;;;;;;;;5010384;28;20046;-64
2022/01/17 00:34:04;;;;;;;17.20;2.58;;;;;;;;;;5011712;28;20072;-63
2022/01/17 00:36:30;;;;;;;24.75;3.63;;;;;;;;;;5010932;28;20046;-64
2022/01/17 00:38:56;;;;;;;27.95;3.13;;;;;;;;;;5011502;28;20457;-63
2022/01/17 00:41:22;;;;;;;23.02;3.38;;;;;;;;;;5011616;28;20057;-64
2022/01/17 00:43:49;;;;;;;15.27;2.92;;;;;;;;;;5011215;28;20042;-63
2022/01/17 00:46:15;;;;;;;34.72;3.83;;;;;;;;;;5011771;28;20097;-63
2022/01/17 00:48:41;;;;;;;18.52;2.83;;;;;;;;;;5010512;28;20408;-63
2022/01/17 00:51:07;;;;;;;26.25;4.47;;;;;;;;;;5010671;28;20034;-63
2022/01/17 00:53:36;;;;;;;17.92;3.42;;;;;;;;;;5011424;28;20133;-63
2022/01/17 00:56:03;;;;;;;24.48;5.13;;;;;;;;;;5010657;28;20117;-64
2022/01/17 00:58:29;;;;;;;19.75;3.60;;;;;;;;;;5010387;28;20516;-63
2022/01/17 01:00:55;;;;;;;36.22;5.97;;;;;;;;;;5010128;28;20046;-63
2022/01/17 01:03:21;;;;;;;34.65;3.78;;;;;;;;;;5009712;28;20046;-63
2022/01/17 01:05:48;;;;;;;30.35;3.05;;;;;;;;;;5011725;28;20042;-63
2022/01/17 01:08:14;;;;;;;21.55;3.50;;;;;;;;;;5009769;28;20116;-63
2022/01/17 01:10:40;;;;;;;27.13;3.03;;;;;;;;;;5010879;28;20157;-63
2022/01/17 01:13:06;;;;;;;37.33;3.53;;;;;;;;;;5011203;28;20038;-63
2022/01/17 01:15:47;;;;;;;21.63;3.55;;;;;;;;;;5010375;28;20049;-63
2022/01/17 01:18:29;;;;;;;20.10;2.83;;;;;;;;;;5007325;28;20608;-63
2022/01/17 01:28:55;;;;;;;34.83;3.85;;;;;;;;;;5038806;28;20168;-64
2022/01/17 01:31:32;;;;;;;26.77;3.20;;;;;;;;;;5013685;28;20458;-63
2022/01/17 01:34:04;;;;;;;25.20;3.22;;;;;;;;;;5045294;28;20062;-64
2022/01/17 01:36:31;;;;;;;27.17;3.22;;;;;;;;;;5015049;28;20074;-63
2022/01/17 01:38:57;;;;;;;24.33;2.72;;;;;;;;;;5014242;28;20092;-63
2022/01/17 01:41:23;;;;;;;28.70;3.60;;;;;;;;;;5014794;28;20042;-64
2022/01/17 01:43:49;;;;;;;23.45;3.83;;;;;;;;;;5014833;28;20038;-63
2022/01/17 01:46:18;;;;;;;20.10;3.08;;;;;;;;;;5012664;28;20137;-63
2022/01/17 01:48:45;;;;;;;24.17;2.83;;;;;;;;;;5014838;28;20045;-64
2022/01/17 01:51:11;;;;;;;31.90;3.72;;;;;;;;;;5013876;28;20049;-63
2022/01/17 01:53:38;;;;;;;21.75;2.78;;;;;;;;;;5006088;28;20457;-63
2022/01/17 01:56:04;;;;;;;25.95;3.72;;;;;;;;;;5014256;28;20470;-63
2022/01/17 01:58:30;;;;;;;24.10;3.53;;;;;;;;;;5013876;28;20112;-63
2022/01/17 02:00:56;;;;;;;24.85;3.67;;;;;;;;;;5013584;28;20041;-64
2022/01/17 02:03:23;;;;;;;28.65;4.13;;;;;;;;;;5014356;28;20062;-64
2022/01/17 02:05:49;;;;;;;25.02;2.38;;;;;;;;;;5014287;28;20046;-63
2022/01/17 02:08:16;;;;;;;17.02;3.25;;;;;;;;;;5013344;28;20076;-63
2022/01/17 02:10:42;;;;;;;24.63;3.50;;;;;;;;;;5012900;28;20771;-63
2022/01/17 02:13:09;;;;;;;24.60;4.47;;;;;;;;;;5014074;28;20054;-63
2022/01/17 02:15:37;;;;;;;25.70;2.85;;;;;;;;;;5013137;28;20429;-63
2022/01/17 02:18:07;;;;;;;30.67;3.90;;;;;;;;;;5014372;28;20137;-63
2022/01/17 02:23:07;;;;;;;18.92;2.67;;;;;;;;;;5007848;28;20092;-63
2022/01/17 02:25:33;;;;;;;23.20;4.05;;;;;;;;;;5006576;28;20421;-64
2022/01/17 02:28:00;;;;;;;28.38;3.35;;;;;;;;;;5034960;28;20429;-63
2022/01/17 02:30:27;;;;;;;20.13;3.40;;;;;;;;;;5010379;28;20050;-63
2022/01/17 02:32:54;;;;;;;21.08;3.13;;;;;;;;;;5009466;28;20050;-63
2022/01/17 02:35:21;;;;;;;26.83;3.25;;;;;;;;;;5010463;28;20091;-63
2022/01/17 02:37:48;;;;;;;24.13;4.35;;;;;;;;;;5009002;28;20037;-63
2022/01/17 02:40:15;;;;;;;28.35;4.20;;;;;;;;;;4998878;28;20398;-63
2022/01/17 02:42:41;;;;;;;21.15;2.38;;;;;;;;;;5013341;28;20064;-63
2022/01/17 02:45:19;;;;;;;28.13;3.75;;;;;;;;;;5013456;28;20053;-63
2022/01/17 02:47:45;;;;;;;28.25;2.83;;;;;;;;;;5018918;28;20374;-63
2022/01/17 02:50:12;;;;;;;30.58;4.32;;;;;;;;;;5012822;28;20050;-63
2022/01/17 02:52:38;;;;;;;17.63;2.38;;;;;;;;;;5013404;28;20037;-63
2022/01/17 02:55:05;;;;;;;28.83;3.97;;;;;;;;;;5013427;28;20042;-64
2022/01/17 02:57:32;;;;;;;28.67;3.25;;;;;;;;;;5012571;28;20042;-63
2022/01/17 02:59:58;;;;;;;26.77;4.90;;;;;;;;;;5012686;28;20042;-63
2022/01/17 03:02:24;;;;;;;20.20;3.30;;;;;;;;;;5012343;28;20408;-63
2022/01/17 03:04:50;;;;;;;24.92;3.13;;;;;;;;;;5011857;28;20121;-63
2022/01/17 03:07:16;;;;;;;21.85;2.80;;;;;;;;;;4988533;28;20050;-63
2022/01/17 03:09:56;;;;;;;28.90;3.65;;;;;;;;;;5012953;28;20060;-63
2022/01/17 03:12:22;;;;;;;22.45;3.95;;;;;;;;;;5012811;28;20078;-63
2022/01/17 03:14:49;;;;;;;15.40;3.35;;;;;;;;;;5006730;28;20120;-63
2022/01/17 03:17:15;;;;;;;25.15;2.42;;;;;;;;;;5012179;28;20119;-63
2022/01/17 03:19:41;;;;;;;25.88;3.80;;;;;;;;;;5012960;28;20042;-63
2022/01/17 03:22:07;;;;;;;20.48;3.45;;;;;;;;;;5012875;28;20053;-63
2022/01/17 03:24:33;;;;;;;17.55;3.10;;;;;;;;;;5012156;28;20045;-63
2022/01/17 03:26:59;;;;;;;27.05;2.95;;;;;;;;;;5011642;28;20050;-63
2022/01/17 03:29:26;;;;;;;28.00;3.30;;;;;;;;;;5012776;28;20049;-63
2022/01/17 03:31:52;;;;;;;29.15;2.70;;;;;;;;;;5011374;28;20095;-63
2022/01/17 03:34:18;;;;;;;25.42;4.53;;;;;;;;;;5012596;28;20042;-63
2022/01/17 03:36:44;;;;;;;20.08;2.85;;;;;;;;;;5011195;28;20042;-63
2022/01/17 03:39:11;;;;;;;27.80;4.05;;;;;;;;;;5010527;28;20086;-63
2022/01/17 03:41:37;;;;;;;21.10;2.50;;;;;;;;;;5012445;28;20091;-63
2022/01/17 03:44:03;;;;;;;20.35;2.70;;;;;;;;;;5011099;28;20050;-63
2022/01/17 03:46:29;;;;;;;37.80;5.60;;;;;;;;;;5011827;28;20172;-63
2022/01/17 03:48:55;;;;;;;22.52;2.78;;;;;;;;;;5012373;28;20124;-63
2022/01/17 03:51:22;;;;;;;13.95;2.58;;;;;;;;;;5012446;28;20056;-63
2022/01/17 03:53:48;;;;;;;18.83;3.63;;;;;;;;;;5011340;28;20041;-64
2022/01/17 03:56:14;;;;;;;19.42;2.65;;;;;;;;;;5012319;28;20072;-63
2022/01/17 03:58:40;;;;;;;18.60;3.33;;;;;;;;;;5011775;28;20046;-63
2022/01/17 04:01:07;;;;;;;14.45;2.90;;;;;;;;;;5011403;28;20463;-63
2022/01/17 04:03:33;;;;;;;32.72;5.05;;;;;;;;;;5012443;28;20069;-63
2022/01/17 04:05:59;;;;;;;28.98;3.30;;;;;;;;;;5004193;28;20489;-64
2022/01/17 04:08:25;;;;;;;26.02;4.70;;;;;;;;;;5009874;28;20418;-64
2022/01/17 04:10:52;;;;;;;21.67;2.78;;;;;;;;;;5012191;28;20397;-64
2022/01/17 04:13:18;;;;;;;21.10;2.83;;;;;;;;;;5011211;28;20050;-63
2022/01/17 04:15:44;;;;;;;19.80;3.70;;;;;;;;;;5010407;28;20089;-64
2022/01/17 04:18:11;;;;;;;30.88;4.00;;;;;;;;;;5012112;28;20046;-63
2022/01/17 04:20:38;;;;;;;23.92;3.58;;;;;;;;;;5009829;28;20107;-64
2022/01/17 04:23:06;;;;;;;21.17;3.22;;;;;;;;;;5011058;28;20072;-63
2022/01/17 04:25:33;;;;;;;25.83;4.88;;;;;;;;;;5011947;28;20050;-64
2022/01/17 04:28:01;;;;;;;25.15;4.78;;;;;;;;;;5011091;28;20111;-63
2022/01/17 04:30:28;;;;;;;20.98;3.33;;;;;;;;;;5010569;28;20500;-64
2022/01/17 04:32:54;;;;;;;28.13;3.53;;;;;;;;;;5011614;28;20108;-63
2022/01/17 04:35:22;;;;;;;27.65;3.58;;;;;;;;;;5009491;28;20046;-64
2022/01/17 04:37:49;;;;;;;26.13;3.78;;;;;;;;;;5010250;28;20137;-63
2022/01/17 04:40:15;;;;;;;19.05;3.75;;;;;;;;;;5011942;28;20052;-63
2022/01/17 04:42:45;;;;;;;39.40;7.10;;;;;;;;;;5010752;28;20103;-63
2022/01/17 04:45:13;;;;;;;25.15;3.88;;;;;;;;;;5010659;28;20058;-63
2022/01/17 04:47:40;;;;;;;23.85;4.47;;;;;;;;;;5011544;28;20083;-63
2022/01/17 04:50:08;;;;;;;34.25;5.85;;;;;;;;;;5011088;28;20050;-63
2022/01/17 04:52:35;;;;;;;28.55;4.15;;;;;;;;;;5011716;28;20045;-63
2022/01/17 04:55:02;;;;;;;22.05;4.30;;;;;;;;;;5010117;28;20506;-63
2022/01/17 04:57:29;;;;;;;27.27;4.85;;;;;;;;;;5009555;28;20046;-63
2022/01/17 04:59:55;;;;;;;23.52;5.63;;;;;;;;;;5011141;28;20057;-63
2022/01/17 05:02:23;;;;;;;16.52;3.42;;;;;;;;;;5011803;28;20113;-63
2022/01/17 05:04:49;;;;;;;24.80;4.68;;;;;;;;;;5012774;28;20612;-63
2022/01/17 05:07:15;;;;;;;26.40;5.05;;;;;;;;;;5015158;28;20098;-64
2022/01/17 05:09:43;;;;;;;22.23;3.78;;;;;;;;;;5014888;28;20050;-63
2022/01/17 05:12:09;;;;;;;22.92;4.50;;;;;;;;;;5001497;28;20038;-63
2022/01/17 05:14:38;;;;;;;26.20;4.78;;;;;;;;;;5015147;28;20073;-63
2022/01/17 05:17:22;;;;;;;23.05;5.22;;;;;;;;;;5014566;28;20046;-63
2022/01/17 05:19:49;;;;;;;16.97;3.27;;;;;;;;;;5010203;28;20053;-63
2022/01/17 05:22:17;;;;;;;22.30;3.95;;;;;;;;;;5039941;28;20393;-63
2022/01/17 05:24:43;;;;;;;31.60;5.20;;;;;;;;;;5013162;28;20513;-63
2022/01/17 05:27:09;;;;;;;35.05;4.85;;;;;;;;;;5013424;28;20077;-64
2022/01/17 05:29:35;;;;;;;36.13;6.80;;;;;;;;;;5013956;28;20467;-63
2022/01/17 05:32:02;;;;;;;30.70;5.90;;;;;;;;;;5012904;28;20049;-63
2022/01/17 05:34:28;;;;;;;25.05;4.70;;;;;;;;;;5013356;28;20049;-63
2022/01/17 05:36:54;;;;;;;29.30;4.72;;;;;;;;;;5014861;28;20042;-63
2022/01/17 05:39:20;;;;;;;26.10;4.57;;;;;;;;;;5013705;28;20046;-63
2022/01/17 05:41:46;;;;;;;25.88;4.82;;;;;;;;;;5013714;28;20054;-63
2022/01/17 05:44:12;;;;;;;34.08;5.25;;;;;;;;;;5014740;28;20128;-64
2022/01/17 05:46:38;;;;;;;22.02;4.60;;;;;;;;;;5043913;28;20155;-64
2022/01/17 05:49:05;;;;;;;35.58;4.95;;;;;;;;;;5013220;28;20490;-64
2022/01/17 05:51:31;;;;;;;31.95;4.30;;;;;;;;;;5012992;28;20492;-63
2022/01/17 05:53:57;;;;;;;30.88;4.75;;;;;;;;;;5013771;28;20046;-63
2022/01/17 05:56:23;;;;;;;35.75;5.30;;;;;;;;;;5006731;28;20042;-63
2022/01/17 05:58:49;;;;;;;27.90;4.50;;;;;;;;;;5011352;28;20046;-63
2022/01/17 06:01:15;;;;;;;29.10;5.40;;;;;;;;;;5012970;28;20451;-63
2022/01/17 06:03:42;;;;;;;33.42;6.55;;;;;;;;;;5014207;28;20046;-64
2022/01/17 06:06:08;;;;;;;33.75;5.15;;;;;;;;;;5013488;28;20061;-63
2022/01/17 06:08:34;;;;;;;42.55;5.93;;;;;;;;;;5013880;28;20046;-63
2022/01/17 06:11:01;;;;;;;38.47;5.40;;;;;;;;;;5003340;28;20030;-63
2022/01/17 06:13:27;;;;;;;34.97;6.15;;;;;;;;;;5040393;28;20054;-63
2022/01/17 06:15:53;;;;;;;38.88;6.53;;;;;;;;;;5012979;28;20133;-63
2022/01/17 06:18:19;;;;;;;28.30;5.03;;;;;;;;;;5014419;28;20404;-63
2022/01/17 06:20:45;;;;;;;41.97;5.57;;;;;;;;;;5013416;28;20046;-63
2022/01/17 06:23:11;;;;;;;42.30;6.15;;;;;;;;;;5012994;28;20482;-63
2022/01/17 06:25:38;;;;;;;34.35;5.75;;;;;;;;;;5005931;28;20130;-63
2022/01/17 06:28:04;;;;;;;43.45;6.78;;;;;;;;;;5011991;28;20069;-63
2022/01/17 06:30:30;;;;;;;33.33;5.53;;;;;;;;;;5012151;28;20232;-62
2022/01/17 06:32:57;;;;;;;40.40;5.40;;;;;;;;;;5012310;28;20124;-63
2022/01/17 06:35:23;;;;;;;38.83;6.10;;;;;;;;;;5013166;28;20242;-63
2022/01/17 06:37:51;;;;;;;34.65;4.95;;;;;;;;;;5013817;28;20122;-63
2022/01/17 06:40:18;;;;;;;43.28;7.30;;;;;;;;;;5013802;28;20046;-63
2022/01/17 06:42:45;;;;;;;45.33;5.38;;;;;;;;;;5012532;28;20049;-63
2022/01/17 06:45:13;;;;;;;37.38;6.53;;;;;;;;;;5013293;28;20046;-63
2022/01/17 06:47:39;;;;;;;43.33;5.97;;;;;;;;;;5013071;28;20446;-63
2022/01/17 06:50:06;;;;;;;34.92;5.72;;;;;;;;;;5012622;28;20362;-63
2022/01/17 06:52:33;;;;;;;37.35;6.05;;;;;;;;;;5011192;28;20037;-63
2022/01/17 06:54:59;;;;;;;38.17;5.35;;;;;;;;;;5007529;28;20088;-63
2022/01/17 06:57:25;;;;;;;50.97;6.95;;;;;;;;;;5022539;28;20127;-63
2022/01/17 06:59:51;;;;;;;41.40;5.95;;;;;;;;;;5027862;28;20565;-63
2022/01/17 07:02:18;;;;;;;38.88;5.22;;;;;;;;;;5019004;28;20073;-63
2022/01/17 07:04:44;;;;;;;43.88;6.63;;;;;;;;;;5015894;28;20042;-63
2022/01/17 07:07:10;;;;;;;43.15;6.25;;;;;;;;;;5021750;28;20057;-63
2022/01/17 07:09:36;;;;;;;51.97;6.50;;;;;;;;;;5029201;28;20081;-63
2022/01/17 07:12:03;;;;;;;42.88;7.32;;;;;;;;;;5027559;28;20056;-63
2022/01/17 07:14:30;;;;;;;41.63;5.18;;;;;;;;;;5020477;28;20117;-63
2022/01/17 07:16:56;;;;;;;41.33;6.13;;;;;;;;;;5014583;28;20125;-63
2022/01/17 07:19:23;;;;;;;42.95;6.43;;;;;;;;;;5024277;28;20497;-63
2022/01/17 07:21:50;;;;;;;40.15;6.53;;;;;;;;;;5029712;28;20080;-63
2022/01/17 07:24:16;;;;;;;38.53;5.43;;;;;;;;;;5026638;28;20056;-63
2022/01/17 07:26:42;;;;;;;42.15;6.95;;;;;;;;;;5026678;28;20178;-63
2022/01/17 07:29:09;;;;;;;40.67;5.47;;;;;;;;;;5018803;28;20050;-64
2022/01/17 07:31:35;;;;;;;46.15;7.85;;;;;;;;;;5014760;28;20516;-63
2022/01/17 07:34:01;;;;;;;39.47;6.63;;;;;;;;;;5022062;28;20038;-63
2022/01/17 07:36:28;;;;;;;35.45;4.90;;;;;;;;;;5025795;28;20048;-64
2022/01/17 07:38:54;;;;;;;43.80;6.60;;;;;;;;;;5012304;28;20148;-63
2022/01/17 07:41:20;;;;;;;37.35;5.90;;;;;;;;;;5017841;28;20080;-63
2022/01/17 07:43:48;;;;;;;35.40;5.22;;;;;;;;;;5013854;28;20061;-63
2022/01/17 07:46:25;;;;;;;41.67;7.07;;;;;;;;;;5015556;28;20073;-63
2022/01/17 07:49:10;;;;;;;39.45;5.38;;;;;;;;;;5015087;28;20413;-63
2022/01/17 07:51:39;;;;;;;45.55;7.68;;;;;;;;;;5010683;28;20476;-62
2022/01/17 07:54:08;;;;;;;56.45;7.07;;;;;;;;;;5002864;28;20049;-62
2022/01/17 07:56:35;;;;;;;39.13;6.72;;;;;;;;;;5005215;28;20376;-62
2022/01/17 07:59:01;;;;;;;50.50;8.23;;;;;;;;;;5010324;28;20042;-63
2022/01/17 08:01:28;;;;;;;39.58;4.90;;;;;;;;;;5012632;28;20041;-63
2022/01/17 08:03:54;;;;;;;44.83;5.50;;;;;;;;;;5009446;28;20073;-63
2022/01/17 08:06:20;;;;;;;50.25;8.57;;;;;;;;;;5010887;28;20070;-63
2022/01/17 08:08:47;;;;;;;41.75;6.72;;;;;;;;;;4999473;28;20133;-63
2022/01/17 08:11:14;;;;;;;37.95;4.85;;;;;;;;;;5002803;28;20056;-63
2022/01/17 08:13:40;;;;;;;34.03;5.60;;;;;;;;;;5005148;28;20050;-63
2022/01/17 08:16:06;;;;;;;43.47;6.55;;;;;;;;;;5008836;28;20057;-63
2022/01/17 08:18:32;;;;;;;33.28;5.03;;;;;;;;;;5003213;28;20066;-64
2022/01/17 08:20:58;;;;;;;33.33;5.35;;;;;;;;;;5017192;28;20041;-63
2022/01/17 08:23:25;;;;;;;36.88;6.47;;;;;;;;;;5000015;28;20129;-63
2022/01/17 08:25:51;;;;;;;51.63;7.45;;;;;;;;;;5012738;28;20033;-63
2022/01/17 08:28:17;;;;;;;42.40;6.60;;;;;;;;;;5004976;28;20054;-63
2022/01/17 08:30:43;;;;;;;46.25;6.65;;;;;;;;;;5005593;28;20181;-63
2022/01/17 08:33:09;;;;;;;50.45;7.05;;;;;;;;;;5014595;28;20056;-63
2022/01/17 08:35:36;;;;;;;37.72;5.65;;;;;;;;;;4999958;28;20398;-63
2022/01/17 08:38:05;;;;;;;43.05;6.20;;;;;;;;;;5006792;28;20129;-63
2022/01/17 08:40:31;;;;;;;44.10;5.75;;;;;;;;;;5007227;28;20382;-65
2022/01/17 08:42:57;;;;;;;40.38;5.78;;;;;;;;;;5008897;28;20049;-65
2022/01/17 08:45:24;;;;;;;50.92;7.72;;;;;;;;;;4999800;28;20562;-65
2022/01/17 08:47:52;;;;;;;42.00;6.40;;;;;;;;;;5003047;28;20057;-62
2022/01/17 08:50:19;;;;;;;49.80;8.00;;;;;;;;;;5007329;28;20061;-63
2022/01/17 08:52:46;;;;;;;35.45;5.03;;;;;;;;;;5006095;28;20328;-63
2022/01/17 08:55:12;;;;;;;39.47;8.38;;;;;;;;;;5013048;28;20050;-64
2022/01/17 08:57:38;;;;;;;47.05;6.10;;;;;;;;;;5011022;28;20042;-64
2022/01/17 09:00:06;;;;;;;36.72;7.35;;;;;;;;;;5006768;28;20414;-63
2022/01/17 09:02:32;;;;;;;40.90;6.00;;;;;;;;;;5028142;28;20069;-63
2022/01/17 09:04:59;;;;;;;43.63;5.60;;;;;;;;;;5006663;28;20492;-63
2022/01/17 09:07:25;;;;;;;40.88;6.18;;;;;;;;;;5008275;28;20057;-63
2022/01/17 09:09:51;;;;;;;36.60;5.88;;;;;;;;;;5013209;28;20078;-63
2022/01/17 09:12:17;;;;;;;44.00;7.22;;;;;;;;;;5007739;28;20046;-63
2022/01/17 09:14:43;;;;;;;45.85;6.30;;;;;;;;;;5013886;28;20072;-63
2022/01/17 09:17:10;;;;;;;42.67;6.03;;;;;;;;;;5007557;28;20053;-63
2022/01/17 09:19:37;;;;;;;41.95;7.63;;;;;;;;;;5028159;28;20401;-63
2022/01/17 09:22:05;;;;;;;47.10;7.25;;;;;;;;;;5026621;28;20045;-63
2022/01/17 09:24:32;;;;;;;31.45;5.85;;;;;;;;;;5024818;28;20064;-63
2022/01/17 09:26:58;;;;;;;46.42;7.53;;;;;;;;;;5012100;28;20042;-63
2022/01/17 09:29:24;;;;;;;44.47;6.20;;;;;;;;;;5014962;28;20389;-63
2022/01/17 09:31:50;;;;;;;49.67;8.00;;;;;;;;;;5014277;28;20034;-63
2022/01/17 09:34:16;;;;;;;44.17;7.47;;;;;;;;;;5016843;28;20100;-62
2022/01/17 09:36:43;;;;;;;52.38;8.13;;;;;;;;;;5026152;28;20053;-62
2022/01/17 09:39:09;;;;;;;56.05;7.32;;;;;;;;;;5025568;28;20052;-63
2022/01/17 09:41:36;;;;;;;36.70;6.82;;;;;;;;;;5026477;28;20459;-63
2022/01/17 09:44:04;;;;;;;42.67;7.32;;;;;;;;;;5027227;28;20079;-62
2022/01/17 09:46:35;;;;;;;50.88;8.18;;;;;;;;;;5026264;28;20041;-63
2022/01/17 09:49:13;;;;;;;51.90;9.82;;;;;;;;;;5026034;28;20551;-62
2022/01/17 09:52:04;;;;;;;55.80;8.38;;;;;;;;;;5012544;28;20424;-63
2022/01/17 09:54:30;;;;;;;63.15;9.35;;;;;;;;;;5016474;28;20057;-62
2022/01/17 09:56:57;;;;;;;48.17;6.70;;;;;;;;;;5010664;28;20045;-62
2022/01/17 09:59:24;;;;;;;42.58;6.63;;;;;;;;;;5017031;28;20050;-62
2022/01/17 10:01:50;;;;;;;51.72;7.88;;;;;;;;;;5019104;28;20108;-62
2022/01/17 10:04:17;;;;;;;49.78;9.00;;;;;;;;;;5016922;28;20103;-62
2022/01/17 10:06:43;;;;;;;50.13;9.70;;;;;;;;;;5017170;28;20072;-62
2022/01/17 10:09:17;;;;;;;48.83;9.10;;;;;;;;;;5016759;28;20490;-61
2022/01/17 10:12:00;;;;;;;56.05;8.27;;;;;;;;;;5017843;28;20053;-62
2022/01/17 10:14:27;;;;;;;44.92;7.18;;;;;;;;;;5012705;28;20401;-62
2022/01/17 10:16:54;;;;;;;56.47;9.63;;;;;;;;;;5017755;28;20131;-62
2022/01/17 10:19:22;;;;;;;68.07;9.48;;;;;;;;;;5014818;28;20077;-62
2022/01/17 10:21:53;;;;;;;36.63;8.00;;;;;;;;;;5016711;28;20042;-62
2022/01/17 10:24:25;;;;;;;68.60;8.68;;;;;;;;;;5017544;28;20045;-62
2022/01/17 10:37:14;;;;;;;56.03;8.45;;;;;;;;;;5013637;28;20041;-62
2022/01/17 10:39:54;;;;;;;44.53;7.82;;;;;;;;;;5016306;28;20423;-62
2022/01/17 10:42:22;;;;;;;44.45;7.75;;;;;;;;;;5028537;28;20038;-62
2022/01/17 10:44:49;;;;;;;62.78;9.45;;;;;;;;;;5030515;28;20067;-62
2022/01/17 10:47:25;;;;;;;47.78;8.25;;;;;;;;;;5028008;28;20397;-62
2022/01/17 10:49:54;;;;;;;56.53;8.38;;;;;;;;;;5028653;28;20482;-62
2022/01/17 10:52:26;;;;;;;58.47;9.45;;;;;;;;;;5028741;28;20057;-62
2022/01/17 10:55:00;;;;;;;57.90;8.07;;;;;;;;;;5024733;28;20079;-62
2022/01/17 10:57:26;;;;;;;56.75;9.60;;;;;;;;;;5022829;28;20482;-62
2022/01/17 10:59:53;;;;;;;58.08;8.50;;;;;;;;;;5016833;28;20107;-62
2022/01/17 11:02:19;;;;;;;54.17;8.43;;;;;;;;;;5019842;28;20553;-61
2022/01/17 11:04:49;;;;;;;56.72;9.98;;;;;;;;;;5029700;28;20048;-61
2022/01/17 11:07:15;;;;;;;58.75;9.18;;;;;;;;;;5026625;28;20053;-61
2022/01/17 11:09:44;;;;;;;51.17;8.88;;;;;;;;;;5019776;28;20065;-61
2022/01/17 11:12:11;;;;;;;59.78;9.77;;;;;;;;;;5028973;28;20037;-61
2022/01/17 11:14:38;;;;;;;57.17;8.43;;;;;;;;;;5020039;28;20375;-65
2022/01/17 11:17:11;;;;;;;61.58;8.25;;;;;;;;;;5014758;28;20042;-61
2022/01/17 11:22:23;;;;;;;57.15;9.18;;;;;;;;;;5008342;28;20058;-66
2022/01/17 11:24:49;;;;;;;60.22;9.38;;;;;;;;;;5025087;28;20041;-61
2022/01/17 11:27:15;;;;;;;54.90;8.57;;;;;;;;;;5009544;28;20042;-61
2022/01/17 11:29:41;;;;;;;67.65;10.75;;;;;;;;;;5014153;28;20057;-61
2022/01/17 11:32:08;;;;;;;65.80;9.50;;;;;;;;;;5018838;28;20541;-61
2022/01/17 11:34:34;;;;;;;79.82;11.57;;;;;;;;;;5015030;28;20555;-61
2022/01/17 11:37:00;;;;;;;65.22;12.25;;;;;;;;;;5021785;28;20121;-61
2022/01/17 11:39:27;;;;;;;58.38;8.13;;;;;;;;;;5021693;28;20041;-61
2022/01/17 11:41:53;;;;;;;65.28;8.85;;;;;;;;;;5021465;28;20042;-61
2022/01/17 11:44:31;;;;;;;62.95;10.23;;;;;;;;;;5021930;28;20121;-61
2022/01/17 11:46:59;;;;;;;60.60;9.48;;;;;;;;;;5005034;28;20049;-61
2022/01/17 11:49:26;;;;;;;50.50;9.85;;;;;;;;;;5005351;28;20038;-61
2022/01/17 11:51:53;;;;;;;75.53;11.20;;;;;;;;;;5008475;28;20362;-61
2022/01/17 11:54:20;;;;;;;54.35;8.40;;;;;;;;;;5011941;28;20050;-61
2022/01/17 11:56:48;;;;;;;69.35;9.80;;;;;;;;;;5012289;28;20034;-60
2022/01/17 11:59:23;;;;;;;59.95;10.25;;;;;;;;;;5011600;28;20076;-60
2022/01/17 12:02:08;;;;;;;70.80;11.27;;;;;;;;;;5010260;28;20042;-60
2022/01/17 12:04:34;;;;;;;66.60;9.90;;;;;;;;;;5013136;28;20045;-61
2022/01/17 12:07:00;;;;;;;60.50;9.82;;;;;;;;;;5011628;28;20050;-61
2022/01/17 12:09:28;;;;;;;62.03;11.45;;;;;;;;;;5012525;28;20057;-60
2022/01/17 12:12:07;;;;;;;60.95;11.50;;;;;;;;;;5010207;28;20128;-61
2022/01/17 12:14:35;;;;;;;73.63;10.30;;;;;;;;;;5007137;28;20092;-67
2022/01/17 12:17:20;;;;;;;69.55;11.40;;;;;;;;;;5041953;28;20567;-68
2022/01/17 12:20:19;;;;;;;60.10;10.60;;;;;;;;;;5037692;28;20038;-67
2022/01/17 12:22:46;;;;;;;63.55;10.73;;;;;;;;;;5007359;28;20103;-67
2022/01/17 12:25:29;;;;;;;59.85;10.57;;;;;;;;;;5010692;28;20038;-60
2022/01/17 12:28:02;;;;;;;53.97;9.85;;;;;;;;;;5013509;28;20041;-60
2022/01/17 12:30:39;;;;;;;60.33;11.05;;;;;;;;;;5004336;28;20049;-60
2022/01/17 12:33:10;;;;;;;59.97;9.93;;;;;;;;;;5004632;28;20091;-60
2022/01/17 12:35:45;;;;;;;63.47;9.90;;;;;;;;;;5007477;28;20050;-60
2022/01/17 12:38:14;;;;;;;70.05;11.32;;;;;;;;;;5010489;28;20042;-62
2022/01/17 12:40:42;;;;;;;66.93;11.85;;;;;;;;;;5009279;28;20050;-60
2022/01/17 12:43:12;;;;;;;51.78;8.75;;;;;;;;;;5010821;28;20391;-60
2022/01/17 12:45:49;;;;;;;66.65;11.57;;;;;;;;;;5009652;28;20393;-60
2022/01/17 12:48:17;;;;;;;58.95;9.98;;;;;;;;;;5009018;28;20180;-60
2022/01/17 12:50:44;;;;;;;89.47;13.60;;;;;;;;;;5010859;28;20500;-60
2022/01/17 12:53:12;;;;;;;67.38;10.23;;;;;;;;;;5009162;28;20068;-61
2022/01/17 12:55:39;;;;;;;54.17;9.88;;;;;;;;;;5007067;28;20053;-60
2022/01/17 12:58:11;;;;;;;69.53;10.43;;;;;;;;;;5010481;28;20053;-61
2022/01/17 13:00:37;;;;;;;61.78;11.27;;;;;;;;;;5009049;28;20125;-61
2022/01/17 13:03:03;;;;;;;76.38;12.00;;;;;;;;;;5008965;28;20037;-61
2022/01/17 13:05:32;;;;;;;62.45;10.15;;;;;;;;;;5011617;28;20038;-60
2022/01/17 13:08:01;;;;;;;72.28;11.70;;;;;;;;;;5010509;28;20053;-60
2022/01/17 13:10:27;;;;;;;70.32;11.68;;;;;;;;;;5009700;28;20054;-60
2022/01/17 13:12:56;;;;;;;74.80;11.52;;;;;;;;;;5010995;28;20038;-60
2022/01/17 13:15:23;;;;;;;66.18;11.95;;;;;;;;;;5010259;28;20061;-60
2022/01/17 13:17:50;;;;;;;66.45;10.95;;;;;;;;;;5009376;28;20049;-60
2022/01/17 13:20:17;;;;;;;63.03;11.05;;;;;;;;;;5011098;28;20398;-60
2022/01/17 13:23:07;;;;;;;65.35;11.35;;;;;;;;;;5009789;28;20042;-60
2022/01/17 13:25:29;;;;;;;69.15;10.82;;;;;;;;;;5010737;28;20457;-60
2022/01/17 13:27:58;;;;;;;75.78;10.88;;;;;;;;;;5015217;28;20132;-60
2022/01/17 13:30:24;;;;;;;59.72;10.93;;;;;;;;;;5014469;28;20374;-60
2022/01/17 13:32:50;;;;;;;64.45;9.75;;;;;;;;;;5015379;28;20500;-60
2022/01/17 13:35:22;;;;;;;62.28;10.25;;;;;;;;;;5013554;28;20072;-60
2022/01/17 13:37:49;;;;;;;76.93;12.27;;;;;;;;;;5014316;28;20038;-60
2022/01/17 13:40:18;;;;;;;75.18;11.18;;;;;;;;;;5014988;28;20104;-60
2022/01/17 13:42:45;;;;;;;67.97;12.35;;;;;;;;;;5015112;28;20042;-61
2022/01/17 13:45:11;;;;;;;65.95;11.25;;;;;;;;;;5014554;28;20048;-60
2022/01/17 13:47:38;;;;;;;79.97;11.32;;;;;;;;;;5014950;28;20069;-59
2022/01/17 13:50:05;;;;;;;91.15;11.73;;;;;;;;;;5013958;28;20046;-60
2022/01/17 13:52:31;;;;;;;67.90;11.50;;;;;;;;;;5014075;28;20468;-60
2022/01/17 13:54:57;;;;;;;69.03;10.15;;;;;;;;;;5014906;28;20116;-60
2022/01/17 13:57:27;;;;;;;65.68;11.13;;;;;;;;;;5013871;28;20490;-60
2022/01/17 13:59:58;;;;;;;60.05;10.93;;;;;;;;;;5010175;28;20125;-60
2022/01/17 14:02:27;;;;;;;63.67;10.57;;;;;;;;;;5012223;28;20125;-60
2022/01/17 14:04:55;;;;;;;66.45;11.05;;;;;;;;;;5011382;28;20125;-60
2022/01/17 14:07:25;;;;;;;63.25;10.60;;;;;;;;;;5008884;28;20049;-60
2022/01/17 14:09:51;;;;;;;69.70;10.70;;;;;;;;;;5006552;28;20048;-60
2022/01/17 14:12:18;;;;;;;64.80;10.20;;;;;;;;;;5009110;28;20046;-60
2022/01/17 14:14:52;;;;;;;70.63;11.73;;;;;;;;;;5013425;28;20042;-60
2022/01/17 14:17:25;;;;;;;69.72;11.32;;;;;;;;;;5013811;28;20088;-60
2022/01/17 14:19:52;;;;;;;65.65;10.65;;;;;;;;;;5010289;28;20045;-61
2022/01/17 14:22:19;;;;;;;64.30;11.32;;;;;;;;;;5042061;28;20050;-60
2022/01/17 14:24:46;;;;;;;60.78;10.73;;;;;;;;;;5013588;28;20041;-61
2022/01/17 14:27:20;;;;;;;57.00;9.70;;;;;;;;;;5012878;28;20041;-61
2022/01/17 14:29:57;;;;;;;68.03;10.50;;;;;;;;;;5011216;28;20457;-61
2022/01/17 14:32:23;;;;;;;72.50;12.55;;;;;;;;;;5013040;28;20129;-61
2022/01/17 14:34:51;;;;;;;79.40;11.65;;;;;;;;;;5013999;28;20046;-61
2022/01/17 14:37:22;;;;;;;90.32;12.90;;;;;;;;;;5010628;28;20096;-61
2022/01/17 14:39:49;;;;;;;67.35;10.95;;;;;;;;;;5021214;28;20061;-61
2022/01/17 14:42:27;;;;;;;69.55;10.82;;;;;;;;;;5017237;28;20083;-61
2022/01/17 14:44:57;;;;;;;76.47;10.63;;;;;;;;;;5015163;28;20065;-61
2022/01/17 14:47:24;;;;;;;71.88;10.65;;;;;;;;;;5017305;28;20065;-61
2022/01/17 14:49:52;;;;;;;59.08;10.07;;;;;;;;;;5021814;28;20393;-61
2022/01/17 14:52:21;;;;;;;75.70;12.65;;;;;;;;;;5015325;28;20049;-61
2022/01/17 14:55:01;;;;;;;66.43;9.80;;;;;;;;;;5007069;28;20577;-61
2022/01/17 15:00:23;;;;;;;62.60;9.73;;;;;;;;;;5014166;28;20480;-61
2022/01/17 15:02:57;;;;;;;75.40;10.85;;;;;;;;;;5012710;28;20068;-61